METAR v bližini

 

LIPQ - Ronchi Legionari, Italy
Oddaljenost od postaje: JZ 35km
Podatki zajeti: 14/12/2019 20:20
Jasno
Jasno
 Veter iz smeri V
Veter: V 7 km/h
Temperatura: 4°C
Občutek mraza zaradi vetra: 2°C
Temp. rosišča: 2°C
Vlažnost: 87%
Tlak: 1008 hPa
Stanje: Jasno
Vidljivost: večja od 10 km
2019/12/14 19:20 LIPQ 141920Z 09004KT CAVOK 04/02 Q1008
LIVT - Trieste, Italy
Oddaljenost od postaje: J 49km
Podatki zajeti: 14/12/2019 18:55
Ni posodobljen
Jasno
Jasno
 Veter iz smeri spremenljiv
Veter: spremenljiv 0 km/h
Temperatura: 7°C
Temp. rosišča: 5°C
Vlažnost: 87%
Tlak: 1006 hPa
Stanje: Jasno
Vidljivost: večja od 10 km
2019/12/14 17:55 LIVT 141755Z /////KT CAVOK 07/05 Q1006 RMK SKC QUK / QUL / VIS MAR 20 KM VIS MIN 9999
 
LIVO - Tarvisio, Italy
Oddaljenost od postaje: SSZ 49km
Podatki zajeti: 14/12/2019 18:55
Ni posodobljen
Jasno
Jasno
 Veter iz smeri calm
Veter: Tišina
Temperatura: -2°C
Temp. rosišča: -4°C
Vlažnost: 86%
Tlak: 1005 hPa
Stanje: Jasno
Vidljivost: večja od 10 km
2019/12/14 17:55 LIVO 141755Z 00000KT CAVOK M02/M04 Q1005 RMK SKC VIS MIN 9999
LIPI - Rivolto (it-Afb), Italy
Oddaljenost od postaje: ZJZ 57km
Podatki zajeti: 13/12/2019 11:55
Ni posodobljen
Rahlo dežuje, Meglice, Pretežno oblačno
Rahlo dežuje, Meglice, Pretežno oblačno
 Veter iz smeri S
Veter: S 15 km/h
Temperatura: 3°C
Občutek mraza zaradi vetra: -1°C
Temp. rosišča: 0°C
Vlažnost: 81%
Tlak: 992 hPa
Stanje: Rahlo dežuje, Meglice
Oblačnost: Pretežno oblačno
Vidljivost: 5 km
Podrobnosti o oblakih: Rahlo oblačno 122 m
Delno oblačno 244 m
Pretežno oblačno 549 m
2019/12/13 10:55 LIPI 131055Z 01008KT 5000 -RA BR FEW004 SCT008 BKN018 03/00 Q0992 RMK OVC VIS MIN 5000 WIND THR06 04009KT WIND THR24 03006KT WHT
 
LJLJ - Ljubljana/Brnik, Slovenia
Oddaljenost od postaje: VSV 59km
Podatki zajeti: 14/12/2019 20:30
Megla ki zmrzuje, Delno oblačno
Megla ki zmrzuje, Delno oblačno
 Veter iz smeri VJV
Veter: VJV 4 km/h
Temperatura: -3°C
Temp. rosišča: -4°C
Vlažnost: 93%
Tlak: 1009 hPa
Stanje: Megla ki zmrzuje
Oblačnost: Delno oblačno
Vidljivost: 1 km
Podrobnosti o oblakih: Delno oblačno 30 m
2019/12/14 19:30 LJLJ 141930Z 11002KT 0700 R30/1100U FZFG SCT001 M03/M04 Q1009 NOSIG
LJPZ - Portoroz, Slovenia
Oddaljenost od postaje: J 68km
Podatki zajeti: 14/12/2019 20:30
Jasno
Jasno
 Veter iz smeri VJV
Veter: VJV 13 km/h
Temperatura: 5°C
Občutek mraza zaradi vetra: 2°C
Temp. rosišča: 1°C
Vlažnost: 76%
Tlak: 1008 hPa
Stanje: Jasno
Vidljivost: večja od 10 km
2019/12/14 19:30 LJPZ 141930Z 12007KT CAVOK 05/01 Q1008
 
LOWK - Klagenfurt(Civ/M, Austria
Oddaljenost od postaje: SV 78km
Podatki zajeti: 14/12/2019 20:50
Pretežno oblačno
Pretežno oblačno
 Veter iz smeri spremenljiv
Veter: spremenljiv 4 km/h
Temperatura: 0°C
Temp. rosišča: -1°C
Vlažnost: 93%
Tlak: 1010 hPa
Oblačnost: Pretežno oblačno
Vidljivost: 10 km
Podrobnosti o oblakih: Rahlo oblačno 152 m
Pretežno oblačno 183 m
2019/12/14 19:50 LOWK 141950Z AUTO VRB02KT 9999 FEW005 BKN006 M00/M01 Q1010 R10L/29//95 TEMPO BKN005
LIYW - Aviano (usaf), Italy
Oddaljenost od postaje: Z 86km
Podatki zajeti: 20/10/2015 15:58
Ni posodobljen
Jasno
Jasno
 Veter iz smeri JJZ
Veter: JJZ 6 km/h
Temperatura: 17°C
Temp. rosišča: 3°C
Vlažnost: 39%
Tlak: 1016.3 hPa
Oblačnost: Jasno
Vidljivost: 10 km
2015/10/20 13:58 LIYW 201358Z AUTO 21003KT 9999 CLR 17/03 A3001 RMK AO2 SLP167 T01660029
 
LIPA - Aviano (it/Us-Af, Italy
Oddaljenost od postaje: Z 89km
Podatki zajeti: 14/12/2019 19:55
Jasno
Jasno
 Veter iz smeri SSV
Veter: SSV 13 km/h
Temperatura: 2°C
Občutek mraza zaradi vetra: -1°C
Temp. rosišča: 1°C
Vlažnost: 93%
Tlak: 1007 hPa
Stanje: Jasno
Vidljivost: večja od 10 km
2019/12/14 18:55 LIPA 141855Z 03007KT CAVOK 02/01 Q1007
LDRI - Rijeka/Omisalj, Croatia
Oddaljenost od postaje: JV 115km
Podatki zajeti: 14/12/2019 20:30
Jasno
Jasno
 Veter iz smeri VJV
Veter: VJV 7 km/h
Temperatura: 8°C
Občutek mraza zaradi vetra: 7°C
Temp. rosišča: 4°C
Vlažnost: 76%
Tlak: 1009 hPa
Stanje: Jasno
Vidljivost: večja od 10 km
2019/12/14 19:30 LDRI 141930Z 12004KT CAVOK 08/04 Q1009
 
LIPZ - Venezia/Tessera, Italy
Oddaljenost od postaje: ZJZ 127km
Podatki zajeti: 14/12/2019 20:50
Delno oblačno
Delno oblačno
 Veter iz smeri Z
Veter: Z 6 km/h
Temperatura: 4°C
Temp. rosišča: 2°C
Vlažnost: 87%
Tlak: 1008 hPa
Oblačnost: Delno oblačno
Vidljivost: 7 km
2019/12/14 19:50 LIPZ 141950Z 27003KT 230V320 7000 NSC 04/02 Q1008 NOSIG
LDPL - Pula, Croatia
Oddaljenost od postaje: J 133km
Podatki zajeti: 14/12/2019 20:30
Jasno
Jasno
 Veter iz smeri V
Veter: V 7 km/h
Temperatura: 4°C
Občutek mraza zaradi vetra: 2°C
Temp. rosišča: 1°C
Vlažnost: 81%
Tlak: 1008 hPa
Stanje: Jasno
Vidljivost: večja od 10 km
2019/12/14 19:30 LDPL 141930Z 09004KT CAVOK 04/01 Q1008 NOSIG
 
LIPS - Istrana (it-Afb), Italy
Oddaljenost od postaje: ZJZ 136km
Podatki zajeti: 14/12/2019 19:55
Jasno
Jasno
 Veter iz smeri spremenljiv
Veter: spremenljiv 0 km/h
Temperatura: 4°C
Temp. rosišča: 3°C
Vlažnost: 93%
Tlak: 1007 hPa
Stanje: Jasno
Vidljivost: večja od 10 km
2019/12/14 18:55 LIPS 141855Z /////KT CAVOK 04/03 Q1007 RMK SKC VIS MIN 9999 WIND THR26 31003KT WIND THR08 35006KT BLU
LIVD - Dobbiaco, Italy
Oddaljenost od postaje: ZSZ 137km
Podatki zajeti: 14/12/2019 18:55
Ni posodobljen
Jasno
Jasno
 Veter iz smeri calm
Veter: Tišina
Temperatura: -3°C
Temp. rosišča: -5°C
Vlažnost: 86%
Tlak: 1006 hPa
Stanje: Jasno
Vidljivost: večja od 10 km
2019/12/14 17:55 LIVD 141755Z 00000KT CAVOK M03/M05 Q1006 RMK SKC VIS MIN 9999
 
LJCE - Cerklje, Slovenia
Oddaljenost od postaje: V 139km
Podatki zajeti: 14/12/2019 20:30
Jasno
Jasno
 Veter iz smeri spremenljiv
Veter: spremenljiv 2 km/h
Temperatura: -1°C
Temp. rosišča: -1°C
Vlažnost: 100%
Tlak: 1009 hPa
Stanje: Jasno
Vidljivost: večja od 10 km
2019/12/14 19:30 LJCE 141930Z VRB01KT CAVOK M01/M01 Q1009 RMK BLU
LOXZ - Zeltweg (mil), Austria
Oddaljenost od postaje: SSV 147km
Podatki zajeti: 14/12/2019 20:50
Megla ki zmrzuje, Oblačno
Megla ki zmrzuje, Oblačno
 Veter iz smeri S
Veter: S 7 km/h
Temperatura: -9°C
Občutek mraza zaradi vetra: -13°C
Temp. rosišča: -9°C
Vlažnost: 100%
Tlak: 1007 hPa
Stanje: Megla ki zmrzuje
Oblačnost: Oblačno
Vidljivost: 1 km
Podrobnosti o oblakih: Oblačno 61 m
2019/12/14 19:50 LOXZ 141950Z 36004KT 0500 FZFG VV002 M09/M09 Q1007
sucontract_SNC